sensor_id;sensor_type;location;lat;lon;timestamp;P1;durP1;ratioP1;P2;durP2;ratioP2
19998;SDS011;10160;50.926;4.374;2024-01-10T00:01:43;14.73;;;6.93;;
19998;SDS011;10160;50.926;4.374;2024-01-10T00:04:08;13.60;;;6.77;;
19998;SDS011;10160;50.926;4.374;2024-01-10T00:06:34;19.57;;;8.30;;
19998;SDS011;10160;50.926;4.374;2024-01-10T00:08:59;20.53;;;9.37;;
19998;SDS011;10160;50.926;4.374;2024-01-10T00:11:28;17.67;;;8.60;;
19998;SDS011;10160;50.926;4.374;2024-01-10T00:13:53;16.73;;;8.60;;
19998;SDS011;10160;50.926;4.374;2024-01-10T00:16:24;16.97;;;8.70;;
19998;SDS011;10160;50.926;4.374;2024-01-10T00:18:50;16.77;;;7.93;;
19998;SDS011;10160;50.926;4.374;2024-01-10T00:21:16;16.80;;;8.47;;
19998;SDS011;10160;50.926;4.374;2024-01-10T00:23:42;16.23;;;8.33;;
19998;SDS011;10160;50.926;4.374;2024-01-10T00:26:07;17.37;;;8.10;;
19998;SDS011;10160;50.926;4.374;2024-01-10T00:28:33;14.80;;;7.83;;
19998;SDS011;10160;50.926;4.374;2024-01-10T00:30:58;14.63;;;7.57;;
19998;SDS011;10160;50.926;4.374;2024-01-10T00:33:24;15.27;;;7.97;;
19998;SDS011;10160;50.926;4.374;2024-01-10T00:35:50;14.00;;;7.37;;
19998;SDS011;10160;50.926;4.374;2024-01-10T00:38:15;14.50;;;7.30;;
19998;SDS011;10160;50.926;4.374;2024-01-10T00:40:41;17.27;;;8.33;;
19998;SDS011;10160;50.926;4.374;2024-01-10T00:43:07;16.60;;;7.57;;
19998;SDS011;10160;50.926;4.374;2024-01-10T00:45:32;14.90;;;8.17;;
19998;SDS011;10160;50.926;4.374;2024-01-10T00:47:58;14.40;;;7.43;;
19998;SDS011;10160;50.926;4.374;2024-01-10T00:50:24;16.17;;;7.03;;
19998;SDS011;10160;50.926;4.374;2024-01-10T00:52:50;14.57;;;7.20;;
19998;SDS011;10160;50.926;4.374;2024-01-10T00:55:15;18.00;;;7.27;;
19998;SDS011;10160;50.926;4.374;2024-01-10T00:57:41;15.17;;;7.97;;
19998;SDS011;10160;50.926;4.374;2024-01-10T01:00:07;21.10;;;8.20;;
19998;SDS011;10160;50.926;4.374;2024-01-10T01:02:35;11.90;;;7.10;;
19998;SDS011;10160;50.926;4.374;2024-01-10T01:05:02;15.70;;;6.83;;
19998;SDS011;10160;50.926;4.374;2024-01-10T01:07:27;13.77;;;7.57;;
19998;SDS011;10160;50.926;4.374;2024-01-10T01:09:56;16.33;;;7.50;;
19998;SDS011;10160;50.926;4.374;2024-01-10T01:12:21;15.10;;;7.67;;
19998;SDS011;10160;50.926;4.374;2024-01-10T01:14:47;15.13;;;6.97;;
19998;SDS011;10160;50.926;4.374;2024-01-10T01:17:13;16.40;;;7.53;;
19998;SDS011;10160;50.926;4.374;2024-01-10T01:19:38;13.20;;;7.47;;
19998;SDS011;10160;50.926;4.374;2024-01-10T01:22:04;13.23;;;7.20;;
19998;SDS011;10160;50.926;4.374;2024-01-10T01:24:32;16.20;;;7.80;;
19998;SDS011;10160;50.926;4.374;2024-01-10T01:26:58;13.27;;;7.57;;
19998;SDS011;10160;50.926;4.374;2024-01-10T01:29:23;14.30;;;7.50;;
19998;SDS011;10160;50.926;4.374;2024-01-10T01:31:49;13.80;;;7.37;;
19998;SDS011;10160;50.926;4.374;2024-01-10T01:34:15;13.17;;;7.43;;
19998;SDS011;10160;50.926;4.374;2024-01-10T01:36:41;15.30;;;8.20;;
19998;SDS011;10160;50.926;4.374;2024-01-10T01:39:06;15.50;;;7.70;;
19998;SDS011;10160;50.926;4.374;2024-01-10T01:41:32;20.07;;;8.53;;
19998;SDS011;10160;50.926;4.374;2024-01-10T01:43:58;13.97;;;7.57;;
19998;SDS011;10160;50.926;4.374;2024-01-10T01:46:23;18.57;;;8.57;;
19998;SDS011;10160;50.926;4.374;2024-01-10T01:48:53;13.83;;;7.80;;
19998;SDS011;10160;50.926;4.374;2024-01-10T01:51:18;18.40;;;7.97;;
19998;SDS011;10160;50.926;4.374;2024-01-10T01:53:46;17.30;;;8.10;;
19998;SDS011;10160;50.926;4.374;2024-01-10T01:56:14;16.20;;;7.40;;
19998;SDS011;10160;50.926;4.374;2024-01-10T01:58:41;19.50;;;8.10;;
19998;SDS011;10160;50.926;4.374;2024-01-10T02:01:08;15.40;;;6.87;;
19998;SDS011;10160;50.926;4.374;2024-01-10T02:03:36;14.47;;;7.30;;
19998;SDS011;10160;50.926;4.374;2024-01-10T02:06:02;14.67;;;7.50;;
19998;SDS011;10160;50.926;4.374;2024-01-10T02:08:37;18.63;;;8.17;;
19998;SDS011;10160;50.926;4.374;2024-01-10T02:11:03;15.80;;;8.13;;
19998;SDS011;10160;50.926;4.374;2024-01-10T02:13:30;15.17;;;7.90;;
19998;SDS011;10160;50.926;4.374;2024-01-10T02:16:00;17.80;;;8.00;;
19998;SDS011;10160;50.926;4.374;2024-01-10T02:18:28;15.07;;;7.93;;
19998;SDS011;10160;50.926;4.374;2024-01-10T02:20:53;15.73;;;6.63;;
19998;SDS011;10160;50.926;4.374;2024-01-10T02:23:19;16.07;;;7.60;;
19998;SDS011;10160;50.926;4.374;2024-01-10T02:25:45;14.13;;;7.70;;
19998;SDS011;10160;50.926;4.374;2024-01-10T02:28:10;16.60;;;7.73;;
19998;SDS011;10160;50.926;4.374;2024-01-10T02:30:37;13.60;;;7.30;;
19998;SDS011;10160;50.926;4.374;2024-01-10T02:33:03;17.17;;;7.70;;
19998;SDS011;10160;50.926;4.374;2024-01-10T02:35:29;17.70;;;8.00;;
19998;SDS011;10160;50.926;4.374;2024-01-10T02:37:57;15.40;;;7.87;;
19998;SDS011;10160;50.926;4.374;2024-01-10T02:40:24;18.80;;;8.97;;
19998;SDS011;10160;50.926;4.374;2024-01-10T02:42:49;15.03;;;7.57;;
19998;SDS011;10160;50.926;4.374;2024-01-10T02:45:16;15.30;;;7.77;;
19998;SDS011;10160;50.926;4.374;2024-01-10T02:47:42;15.00;;;7.97;;
19998;SDS011;10160;50.926;4.374;2024-01-10T02:50:08;14.23;;;7.27;;
19998;SDS011;10160;50.926;4.374;2024-01-10T02:52:34;19.30;;;7.90;;
19998;SDS011;10160;50.926;4.374;2024-01-10T02:54:59;16.07;;;7.93;;
19998;SDS011;10160;50.926;4.374;2024-01-10T02:57:25;14.73;;;7.73;;
19998;SDS011;10160;50.926;4.374;2024-01-10T02:59:51;15.13;;;8.37;;
19998;SDS011;10160;50.926;4.374;2024-01-10T03:02:16;14.37;;;8.03;;
19998;SDS011;10160;50.926;4.374;2024-01-10T03:04:45;17.27;;;8.03;;
19998;SDS011;10160;50.926;4.374;2024-01-10T03:07:13;14.73;;;8.47;;
19998;SDS011;10160;50.926;4.374;2024-01-10T03:09:39;16.57;;;8.40;;
19998;SDS011;10160;50.926;4.374;2024-01-10T03:12:04;15.90;;;7.83;;
19998;SDS011;10160;50.926;4.374;2024-01-10T03:14:30;14.37;;;7.63;;
19998;SDS011;10160;50.926;4.374;2024-01-10T03:16:57;17.00;;;7.90;;
19998;SDS011;10160;50.926;4.374;2024-01-10T03:19:23;18.30;;;8.17;;
19998;SDS011;10160;50.926;4.374;2024-01-10T03:21:48;19.03;;;8.17;;
19998;SDS011;10160;50.926;4.374;2024-01-10T03:24:14;14.43;;;7.17;;
19998;SDS011;10160;50.926;4.374;2024-01-10T03:26:40;15.60;;;7.40;;
19998;SDS011;10160;50.926;4.374;2024-01-10T03:29:05;13.60;;;7.37;;
19998;SDS011;10160;50.926;4.374;2024-01-10T03:31:31;15.57;;;7.73;;
19998;SDS011;10160;50.926;4.374;2024-01-10T03:33:57;13.03;;;7.03;;
19998;SDS011;10160;50.926;4.374;2024-01-10T03:36:23;15.17;;;7.43;;
19998;SDS011;10160;50.926;4.374;2024-01-10T03:38:49;18.27;;;7.50;;
19998;SDS011;10160;50.926;4.374;2024-01-10T03:41:16;17.10;;;8.10;;
19998;SDS011;10160;50.926;4.374;2024-01-10T03:43:42;16.90;;;7.50;;
19998;SDS011;10160;50.926;4.374;2024-01-10T03:46:09;17.50;;;7.57;;
19998;SDS011;10160;50.926;4.374;2024-01-10T03:48:35;14.43;;;7.53;;
19998;SDS011;10160;50.926;4.374;2024-01-10T03:51:02;15.60;;;7.67;;
19998;SDS011;10160;50.926;4.374;2024-01-10T03:53:28;16.97;;;7.53;;
19998;SDS011;10160;50.926;4.374;2024-01-10T03:55:54;17.53;;;7.50;;
19998;SDS011;10160;50.926;4.374;2024-01-10T03:58:20;19.00;;;8.67;;
19998;SDS011;10160;50.926;4.374;2024-01-10T04:00:45;16.83;;;7.40;;
19998;SDS011;10160;50.926;4.374;2024-01-10T04:03:11;15.23;;;7.60;;
19998;SDS011;10160;50.926;4.374;2024-01-10T04:05:36;15.53;;;7.90;;
19998;SDS011;10160;50.926;4.374;2024-01-10T04:08:02;16.90;;;8.03;;
19998;SDS011;10160;50.926;4.374;2024-01-10T04:10:29;16.43;;;7.47;;
19998;SDS011;10160;50.926;4.374;2024-01-10T04:12:54;15.33;;;7.37;;
19998;SDS011;10160;50.926;4.374;2024-01-10T04:15:20;17.23;;;7.27;;
19998;SDS011;10160;50.926;4.374;2024-01-10T04:17:46;15.87;;;7.90;;
19998;SDS011;10160;50.926;4.374;2024-01-10T04:20:11;14.03;;;7.23;;
19998;SDS011;10160;50.926;4.374;2024-01-10T04:22:37;13.70;;;7.17;;
19998;SDS011;10160;50.926;4.374;2024-01-10T04:25:04;17.87;;;8.20;;
19998;SDS011;10160;50.926;4.374;2024-01-10T04:27:31;12.37;;;6.93;;
19998;SDS011;10160;50.926;4.374;2024-01-10T04:29:57;13.03;;;7.07;;
19998;SDS011;10160;50.926;4.374;2024-01-10T04:32:23;14.10;;;7.53;;
19998;SDS011;10160;50.926;4.374;2024-01-10T04:34:48;16.10;;;8.23;;
19998;SDS011;10160;50.926;4.374;2024-01-10T04:37:15;15.60;;;7.13;;
19998;SDS011;10160;50.926;4.374;2024-01-10T04:39:40;17.53;;;7.57;;
19998;SDS011;10160;50.926;4.374;2024-01-10T04:42:08;15.13;;;7.27;;
19998;SDS011;10160;50.926;4.374;2024-01-10T04:44:35;16.40;;;7.60;;
19998;SDS011;10160;50.926;4.374;2024-01-10T04:47:04;14.37;;;7.43;;
19998;SDS011;10160;50.926;4.374;2024-01-10T04:49:30;12.73;;;6.90;;
19998;SDS011;10160;50.926;4.374;2024-01-10T04:51:56;14.83;;;7.53;;
19998;SDS011;10160;50.926;4.374;2024-01-10T04:54:24;14.90;;;8.37;;
19998;SDS011;10160;50.926;4.374;2024-01-10T04:56:50;15.13;;;7.03;;
19998;SDS011;10160;50.926;4.374;2024-01-10T04:59:15;14.90;;;7.30;;
19998;SDS011;10160;50.926;4.374;2024-01-10T05:01:41;12.90;;;7.40;;
19998;SDS011;10160;50.926;4.374;2024-01-10T05:04:07;12.63;;;7.30;;
19998;SDS011;10160;50.926;4.374;2024-01-10T05:06:32;16.13;;;7.83;;
19998;SDS011;10160;50.926;4.374;2024-01-10T05:08:58;14.27;;;7.17;;
19998;SDS011;10160;50.926;4.374;2024-01-10T05:11:24;17.53;;;7.33;;
19998;SDS011;10160;50.926;4.374;2024-01-10T05:13:51;13.57;;;7.27;;
19998;SDS011;10160;50.926;4.374;2024-01-10T05:16:17;14.87;;;7.63;;
19998;SDS011;10160;50.926;4.374;2024-01-10T05:18:42;13.73;;;6.93;;
19998;SDS011;10160;50.926;4.374;2024-01-10T05:21:08;15.50;;;7.00;;
19998;SDS011;10160;50.926;4.374;2024-01-10T05:23:34;13.17;;;6.33;;
19998;SDS011;10160;50.926;4.374;2024-01-10T05:26:00;17.53;;;8.07;;
19998;SDS011;10160;50.926;4.374;2024-01-10T05:28:26;14.03;;;7.10;;
19998;SDS011;10160;50.926;4.374;2024-01-10T05:30:51;13.10;;;7.10;;
19998;SDS011;10160;50.926;4.374;2024-01-10T05:33:17;15.70;;;8.17;;
19998;SDS011;10160;50.926;4.374;2024-01-10T05:35:43;12.60;;;6.97;;
19998;SDS011;10160;50.926;4.374;2024-01-10T05:38:08;13.07;;;7.07;;
19998;SDS011;10160;50.926;4.374;2024-01-10T05:40:34;17.00;;;7.63;;
19998;SDS011;10160;50.926;4.374;2024-01-10T05:42:59;12.33;;;7.07;;
19998;SDS011;10160;50.926;4.374;2024-01-10T05:45:25;16.10;;;7.53;;
19998;SDS011;10160;50.926;4.374;2024-01-10T05:47:51;15.53;;;7.70;;
19998;SDS011;10160;50.926;4.374;2024-01-10T05:50:17;17.47;;;7.70;;
19998;SDS011;10160;50.926;4.374;2024-01-10T05:52:43;15.10;;;7.37;;
19998;SDS011;10160;50.926;4.374;2024-01-10T05:55:09;18.30;;;7.60;;
19998;SDS011;10160;50.926;4.374;2024-01-10T05:57:35;12.90;;;6.60;;
19998;SDS011;10160;50.926;4.374;2024-01-10T06:00:04;15.40;;;7.03;;
19998;SDS011;10160;50.926;4.374;2024-01-10T06:02:38;14.57;;;7.53;;
19998;SDS011;10160;50.926;4.374;2024-01-10T06:05:05;13.90;;;6.97;;
19998;SDS011;10160;50.926;4.374;2024-01-10T06:07:32;14.20;;;7.77;;
19998;SDS011;10160;50.926;4.374;2024-01-10T06:09:58;14.50;;;7.90;;
19998;SDS011;10160;50.926;4.374;2024-01-10T06:12:23;13.13;;;6.77;;
19998;SDS011;10160;50.926;4.374;2024-01-10T06:14:50;13.70;;;7.07;;
19998;SDS011;10160;50.926;4.374;2024-01-10T06:17:16;22.27;;;7.10;;
19998;SDS011;10160;50.926;4.374;2024-01-10T06:19:41;15.07;;;7.00;;
19998;SDS011;10160;50.926;4.374;2024-01-10T06:22:07;13.13;;;7.20;;
19998;SDS011;10160;50.926;4.374;2024-01-10T06:24:32;14.20;;;7.30;;
19998;SDS011;10160;50.926;4.374;2024-01-10T06:26:58;15.53;;;7.40;;
19998;SDS011;10160;50.926;4.374;2024-01-10T06:29:24;13.97;;;7.37;;
19998;SDS011;10160;50.926;4.374;2024-01-10T06:31:50;15.77;;;7.27;;
19998;SDS011;10160;50.926;4.374;2024-01-10T06:34:18;14.47;;;7.10;;
19998;SDS011;10160;50.926;4.374;2024-01-10T06:36:44;17.30;;;7.70;;
19998;SDS011;10160;50.926;4.374;2024-01-10T06:39:10;13.17;;;7.27;;
19998;SDS011;10160;50.926;4.374;2024-01-10T06:41:39;15.10;;;7.77;;
19998;SDS011;10160;50.926;4.374;2024-01-10T06:44:04;21.73;;;7.47;;
19998;SDS011;10160;50.926;4.374;2024-01-10T06:46:33;14.10;;;6.90;;
19998;SDS011;10160;50.926;4.374;2024-01-10T06:48:59;16.50;;;6.73;;
19998;SDS011;10160;50.926;4.374;2024-01-10T06:51:25;12.53;;;6.97;;
19998;SDS011;10160;50.926;4.374;2024-01-10T06:53:52;12.80;;;6.93;;
19998;SDS011;10160;50.926;4.374;2024-01-10T06:56:17;13.30;;;6.67;;
19998;SDS011;10160;50.926;4.374;2024-01-10T06:58:43;12.20;;;6.47;;
19998;SDS011;10160;50.926;4.374;2024-01-10T07:01:12;21.93;;;7.93;;
19998;SDS011;10160;50.926;4.374;2024-01-10T07:03:39;13.13;;;6.83;;
19998;SDS011;10160;50.926;4.374;2024-01-10T07:06:05;16.00;;;7.70;;
19998;SDS011;10160;50.926;4.374;2024-01-10T07:08:31;15.17;;;7.60;;
19998;SDS011;10160;50.926;4.374;2024-01-10T07:10:56;15.70;;;7.47;;
19998;SDS011;10160;50.926;4.374;2024-01-10T07:13:22;14.53;;;6.43;;
19998;SDS011;10160;50.926;4.374;2024-01-10T07:15:48;18.43;;;7.27;;
19998;SDS011;10160;50.926;4.374;2024-01-10T07:18:16;13.30;;;7.17;;
19998;SDS011;10160;50.926;4.374;2024-01-10T07:20:42;13.63;;;7.67;;
19998;SDS011;10160;50.926;4.374;2024-01-10T07:23:07;15.93;;;7.47;;
19998;SDS011;10160;50.926;4.374;2024-01-10T07:25:33;15.33;;;7.50;;
19998;SDS011;10160;50.926;4.374;2024-01-10T07:27:59;18.10;;;7.73;;
19998;SDS011;10160;50.926;4.374;2024-01-10T07:30:24;24.37;;;7.97;;
19998;SDS011;10160;50.926;4.374;2024-01-10T07:32:51;15.87;;;7.60;;
19998;SDS011;10160;50.926;4.374;2024-01-10T07:35:17;15.83;;;7.57;;
19998;SDS011;10160;50.926;4.374;2024-01-10T07:37:42;18.73;;;8.07;;
19998;SDS011;10160;50.926;4.374;2024-01-10T07:40:09;15.73;;;8.37;;
19998;SDS011;10160;50.926;4.374;2024-01-10T07:42:35;18.67;;;7.90;;
19998;SDS011;10160;50.926;4.374;2024-01-10T07:45:02;17.80;;;7.60;;
19998;SDS011;10160;50.926;4.374;2024-01-10T07:47:32;16.83;;;7.37;;
19998;SDS011;10160;50.926;4.374;2024-01-10T07:50:05;16.43;;;7.87;;
19998;SDS011;10160;50.926;4.374;2024-01-10T07:52:32;15.80;;;7.83;;
19998;SDS011;10160;50.926;4.374;2024-01-10T07:54:57;15.00;;;7.80;;
19998;SDS011;10160;50.926;4.374;2024-01-10T07:57:23;20.53;;;8.67;;
19998;SDS011;10160;50.926;4.374;2024-01-10T07:59:49;18.97;;;7.93;;
19998;SDS011;10160;50.926;4.374;2024-01-10T08:02:14;15.73;;;8.50;;
19998;SDS011;10160;50.926;4.374;2024-01-10T08:04:41;18.93;;;9.20;;
19998;SDS011;10160;50.926;4.374;2024-01-10T08:07:07;15.30;;;8.10;;
19998;SDS011;10160;50.926;4.374;2024-01-10T08:09:39;18.80;;;8.33;;
19998;SDS011;10160;50.926;4.374;2024-01-10T08:12:05;12.77;;;7.53;;
19998;SDS011;10160;50.926;4.374;2024-01-10T08:14:34;14.50;;;8.07;;
19998;SDS011;10160;50.926;4.374;2024-01-10T08:17:02;13.60;;;7.13;;
19998;SDS011;10160;50.926;4.374;2024-01-10T08:19:32;13.77;;;7.83;;
19998;SDS011;10160;50.926;4.374;2024-01-10T08:21:57;15.00;;;7.47;;
19998;SDS011;10160;50.926;4.374;2024-01-10T08:24:23;14.93;;;8.10;;
19998;SDS011;10160;50.926;4.374;2024-01-10T08:26:49;19.30;;;8.40;;
19998;SDS011;10160;50.926;4.374;2024-01-10T08:29:17;22.13;;;8.70;;
19998;SDS011;10160;50.926;4.374;2024-01-10T08:31:43;21.10;;;8.50;;
19998;SDS011;10160;50.926;4.374;2024-01-10T08:34:09;17.57;;;8.43;;
19998;SDS011;10160;50.926;4.374;2024-01-10T08:36:35;19.50;;;8.90;;
19998;SDS011;10160;50.926;4.374;2024-01-10T08:39:01;18.73;;;9.90;;
19998;SDS011;10160;50.926;4.374;2024-01-10T08:41:28;29.83;;;14.20;;
19998;SDS011;10160;50.926;4.374;2024-01-10T08:43:54;25.60;;;11.80;;
19998;SDS011;10160;50.926;4.374;2024-01-10T08:46:19;22.60;;;10.17;;
19998;SDS011;10160;50.926;4.374;2024-01-10T08:48:45;19.03;;;10.67;;
19998;SDS011;10160;50.926;4.374;2024-01-10T08:51:12;23.60;;;9.60;;
19998;SDS011;10160;50.926;4.374;2024-01-10T08:53:41;16.10;;;8.63;;
19998;SDS011;10160;50.926;4.374;2024-01-10T08:56:07;19.37;;;9.40;;
19998;SDS011;10160;50.926;4.374;2024-01-10T08:58:33;23.97;;;10.57;;
19998;SDS011;10160;50.926;4.374;2024-01-10T09:00:58;20.97;;;10.20;;
19998;SDS011;10160;50.926;4.374;2024-01-10T09:03:24;19.20;;;9.83;;
19998;SDS011;10160;50.926;4.374;2024-01-10T09:05:50;16.70;;;7.67;;
19998;SDS011;10160;50.926;4.374;2024-01-10T09:08:15;22.03;;;9.40;;
19998;SDS011;10160;50.926;4.374;2024-01-10T09:10:41;21.43;;;8.70;;
19998;SDS011;10160;50.926;4.374;2024-01-10T09:13:07;17.47;;;8.70;;
19998;SDS011;10160;50.926;4.374;2024-01-10T09:15:32;19.20;;;9.17;;
19998;SDS011;10160;50.926;4.374;2024-01-10T09:17:58;18.40;;;9.97;;
19998;SDS011;10160;50.926;4.374;2024-01-10T09:20:24;20.57;;;8.50;;
19998;SDS011;10160;50.926;4.374;2024-01-10T09:22:49;26.37;;;9.77;;
19998;SDS011;10160;50.926;4.374;2024-01-10T09:25:15;20.03;;;10.23;;
19998;SDS011;10160;50.926;4.374;2024-01-10T09:27:41;21.57;;;9.67;;
19998;SDS011;10160;50.926;4.374;2024-01-10T09:30:08;19.87;;;8.77;;
19998;SDS011;10160;50.926;4.374;2024-01-10T09:32:34;15.73;;;8.40;;
19998;SDS011;10160;50.926;4.374;2024-01-10T09:35:01;17.73;;;8.37;;
19998;SDS011;10160;50.926;4.374;2024-01-10T09:37:26;18.17;;;8.70;;
19998;SDS011;10160;50.926;4.374;2024-01-10T09:39:52;18.77;;;7.97;;
19998;SDS011;10160;50.926;4.374;2024-01-10T09:42:21;21.40;;;9.40;;
19998;SDS011;10160;50.926;4.374;2024-01-10T09:44:50;18.90;;;9.27;;
19998;SDS011;10160;50.926;4.374;2024-01-10T09:47:16;17.93;;;9.20;;
19998;SDS011;10160;50.926;4.374;2024-01-10T09:49:44;15.37;;;7.73;;
19998;SDS011;10160;50.926;4.374;2024-01-10T09:52:11;16.60;;;7.63;;
19998;SDS011;10160;50.926;4.374;2024-01-10T09:54:56;22.37;;;8.13;;
19998;SDS011;10160;50.926;4.374;2024-01-10T09:57:23;18.17;;;8.33;;
19998;SDS011;10160;50.926;4.374;2024-01-10T09:59:52;18.07;;;8.23;;
19998;SDS011;10160;50.926;4.374;2024-01-10T10:02:21;16.73;;;7.17;;
19998;SDS011;10160;50.926;4.374;2024-01-10T10:05:07;16.47;;;7.17;;
19998;SDS011;10160;50.926;4.374;2024-01-10T10:07:47;20.47;;;7.80;;
19998;SDS011;10160;50.926;4.374;2024-01-10T10:10:14;14.50;;;7.83;;
19998;SDS011;10160;50.926;4.374;2024-01-10T10:12:55;19.77;;;8.17;;
19998;SDS011;10160;50.926;4.374;2024-01-10T10:15:21;17.87;;;7.73;;
19998;SDS011;10160;50.926;4.374;2024-01-10T10:17:48;21.63;;;9.70;;
19998;SDS011;10160;50.926;4.374;2024-01-10T10:23:11;22.20;;;9.87;;
19998;SDS011;10160;50.926;4.374;2024-01-10T10:25:43;21.10;;;8.17;;
19998;SDS011;10160;50.926;4.374;2024-01-10T10:28:09;17.53;;;8.17;;
19998;SDS011;10160;50.926;4.374;2024-01-10T10:30:35;20.97;;;8.93;;
19998;SDS011;10160;50.926;4.374;2024-01-10T10:33:01;17.10;;;8.93;;
19998;SDS011;10160;50.926;4.374;2024-01-10T10:35:27;21.63;;;9.23;;
19998;SDS011;10160;50.926;4.374;2024-01-10T10:37:53;15.37;;;7.67;;
19998;SDS011;10160;50.926;4.374;2024-01-10T10:40:19;17.67;;;8.53;;
19998;SDS011;10160;50.926;4.374;2024-01-10T10:42:46;18.63;;;8.20;;
19998;SDS011;10160;50.926;4.374;2024-01-10T10:45:23;28.07;;;9.70;;
19998;SDS011;10160;50.926;4.374;2024-01-10T10:47:56;21.87;;;8.67;;
19998;SDS011;10160;50.926;4.374;2024-01-10T10:50:24;23.97;;;8.37;;
19998;SDS011;10160;50.926;4.374;2024-01-10T10:52:54;17.27;;;8.20;;
19998;SDS011;10160;50.926;4.374;2024-01-10T10:55:23;18.93;;;8.80;;
19998;SDS011;10160;50.926;4.374;2024-01-10T10:57:54;21.17;;;8.80;;
19998;SDS011;10160;50.926;4.374;2024-01-10T11:00:21;18.43;;;8.20;;
19998;SDS011;10160;50.926;4.374;2024-01-10T11:02:52;17.77;;;8.87;;
19998;SDS011;10160;50.926;4.374;2024-01-10T11:05:18;19.23;;;9.00;;
19998;SDS011;10160;50.926;4.374;2024-01-10T11:07:46;17.23;;;8.67;;
19998;SDS011;10160;50.926;4.374;2024-01-10T11:10:20;13.57;;;8.13;;
19998;SDS011;10160;50.926;4.374;2024-01-10T11:24:13;21.40;;;8.87;;
19998;SDS011;10160;50.926;4.374;2024-01-10T11:26:39;22.43;;;9.80;;
19998;SDS011;10160;50.926;4.374;2024-01-10T11:29:05;20.13;;;9.10;;
19998;SDS011;10160;50.926;4.374;2024-01-10T11:31:31;17.92;;;9.15;;
19998;SDS011;10160;50.926;4.374;2024-01-10T11:33:58;17.92;;;8.25;;
19998;SDS011;10160;50.926;4.374;2024-01-10T11:36:25;18.60;;;8.75;;
19998;SDS011;10160;50.926;4.374;2024-01-10T11:46:40;17.60;;;8.63;;
19998;SDS011;10160;50.926;4.374;2024-01-10T11:49:09;17.00;;;9.40;;
19998;SDS011;10160;50.926;4.374;2024-01-10T11:51:37;18.87;;;8.90;;
19998;SDS011;10160;50.926;4.374;2024-01-10T11:54:03;19.80;;;8.70;;
19998;SDS011;10160;50.926;4.374;2024-01-10T11:56:42;19.70;;;9.70;;
19998;SDS011;10160;50.926;4.374;2024-01-10T11:59:13;21.90;;;9.53;;
19998;SDS011;10160;50.926;4.374;2024-01-10T12:01:41;20.60;;;9.67;;
19998;SDS011;10160;50.926;4.374;2024-01-10T12:04:07;21.47;;;9.83;;
19998;SDS011;10160;50.926;4.374;2024-01-10T12:06:37;20.20;;;9.53;;
19998;SDS011;10160;50.926;4.374;2024-01-10T12:09:03;20.23;;;8.63;;
19998;SDS011;10160;50.926;4.374;2024-01-10T12:11:37;20.97;;;9.43;;
19998;SDS011;10160;50.926;4.374;2024-01-10T12:14:12;20.80;;;9.33;;
19998;SDS011;10160;50.926;4.374;2024-01-10T12:16:39;21.00;;;9.20;;
19998;SDS011;10160;50.926;4.374;2024-01-10T12:19:05;20.03;;;9.47;;
19998;SDS011;10160;50.926;4.374;2024-01-10T12:21:31;17.57;;;9.70;;
19998;SDS011;10160;50.926;4.374;2024-01-10T12:23:57;19.63;;;9.93;;
19998;SDS011;10160;50.926;4.374;2024-01-10T12:26:22;19.60;;;9.43;;
19998;SDS011;10160;50.926;4.374;2024-01-10T12:28:58;21.63;;;9.03;;
19998;SDS011;10160;50.926;4.374;2024-01-10T12:31:28;20.77;;;8.87;;
19998;SDS011;10160;50.926;4.374;2024-01-10T12:33:55;23.37;;;9.07;;
19998;SDS011;10160;50.926;4.374;2024-01-10T12:36:21;21.80;;;9.33;;
19998;SDS011;10160;50.926;4.374;2024-01-10T12:38:47;20.33;;;9.40;;
19998;SDS011;10160;50.926;4.374;2024-01-10T12:41:14;26.03;;;10.10;;
19998;SDS011;10160;50.926;4.374;2024-01-10T12:43:40;22.87;;;10.50;;
19998;SDS011;10160;50.926;4.374;2024-01-10T12:46:10;30.77;;;11.33;;
19998;SDS011;10160;50.926;4.374;2024-01-10T12:48:37;25.40;;;10.87;;
19998;SDS011;10160;50.926;4.374;2024-01-10T12:51:06;20.17;;;9.20;;
19998;SDS011;10160;50.926;4.374;2024-01-10T12:53:37;24.13;;;11.03;;
19998;SDS011;10160;50.926;4.374;2024-01-10T12:56:04;25.53;;;10.10;;
19998;SDS011;10160;50.926;4.374;2024-01-10T12:58:31;23.97;;;10.43;;
19998;SDS011;10160;50.926;4.374;2024-01-10T13:00:58;19.83;;;8.93;;
19998;SDS011;10160;50.926;4.374;2024-01-10T13:03:24;19.00;;;9.63;;
19998;SDS011;10160;50.926;4.374;2024-01-10T13:05:50;19.47;;;9.17;;
19998;SDS011;10160;50.926;4.374;2024-01-10T13:08:17;21.87;;;9.77;;
19998;SDS011;10160;50.926;4.374;2024-01-10T13:10:44;22.90;;;11.03;;
19998;SDS011;10160;50.926;4.374;2024-01-10T13:13:14;21.67;;;10.07;;
19998;SDS011;10160;50.926;4.374;2024-01-10T13:15:40;30.90;;;10.50;;
19998;SDS011;10160;50.926;4.374;2024-01-10T13:18:07;23.00;;;10.97;;
19998;SDS011;10160;50.926;4.374;2024-01-10T13:20:35;21.20;;;10.10;;
19998;SDS011;10160;50.926;4.374;2024-01-10T13:23:01;17.43;;;9.37;;
19998;SDS011;10160;50.926;4.374;2024-01-10T13:25:26;23.50;;;9.97;;
19998;SDS011;10160;50.926;4.374;2024-01-10T13:27:52;21.53;;;9.50;;
19998;SDS011;10160;50.926;4.374;2024-01-10T13:30:18;20.50;;;9.17;;
19998;SDS011;10160;50.926;4.374;2024-01-10T13:32:47;19.03;;;9.57;;
19998;SDS011;10160;50.926;4.374;2024-01-10T13:35:13;22.57;;;9.50;;
19998;SDS011;10160;50.926;4.374;2024-01-10T13:37:39;20.20;;;9.93;;
19998;SDS011;10160;50.926;4.374;2024-01-10T13:40:06;20.37;;;9.90;;
19998;SDS011;10160;50.926;4.374;2024-01-10T13:42:34;21.47;;;9.67;;
19998;SDS011;10160;50.926;4.374;2024-01-10T13:45:02;24.57;;;10.43;;
19998;SDS011;10160;50.926;4.374;2024-01-10T13:47:32;19.83;;;9.33;;
19998;SDS011;10160;50.926;4.374;2024-01-10T13:49:59;22.70;;;10.13;;
19998;SDS011;10160;50.926;4.374;2024-01-10T13:52:25;21.37;;;10.20;;
19998;SDS011;10160;50.926;4.374;2024-01-10T13:54:51;19.50;;;9.47;;
19998;SDS011;10160;50.926;4.374;2024-01-10T13:57:17;21.77;;;10.40;;
19998;SDS011;10160;50.926;4.374;2024-01-10T13:59:43;23.70;;;10.33;;
19998;SDS011;10160;50.926;4.374;2024-01-10T14:02:09;20.57;;;10.17;;
19998;SDS011;10160;50.926;4.374;2024-01-10T14:04:35;24.97;;;9.63;;
19998;SDS011;10160;50.926;4.374;2024-01-10T14:07:01;25.30;;;10.50;;
19998;SDS011;10160;50.926;4.374;2024-01-10T14:09:29;20.50;;;9.77;;
19998;SDS011;10160;50.926;4.374;2024-01-10T14:11:55;21.57;;;11.40;;
19998;SDS011;10160;50.926;4.374;2024-01-10T14:14:21;32.93;;;13.80;;
19998;SDS011;10160;50.926;4.374;2024-01-10T14:16:47;24.40;;;10.47;;
19998;SDS011;10160;50.926;4.374;2024-01-10T14:19:13;24.60;;;12.20;;
19998;SDS011;10160;50.926;4.374;2024-01-10T14:21:39;29.57;;;13.67;;
19998;SDS011;10160;50.926;4.374;2024-01-10T14:24:04;23.77;;;11.67;;
19998;SDS011;10160;50.926;4.374;2024-01-10T14:26:31;28.93;;;12.77;;
19998;SDS011;10160;50.926;4.374;2024-01-10T14:28:57;31.03;;;12.30;;
19998;SDS011;10160;50.926;4.374;2024-01-10T14:31:24;21.63;;;10.37;;
19998;SDS011;10160;50.926;4.374;2024-01-10T14:33:50;23.03;;;10.63;;
19998;SDS011;10160;50.926;4.374;2024-01-10T14:36:15;22.43;;;10.67;;
19998;SDS011;10160;50.926;4.374;2024-01-10T14:38:42;25.03;;;12.00;;
19998;SDS011;10160;50.926;4.374;2024-01-10T14:41:07;24.97;;;11.83;;
19998;SDS011;10160;50.926;4.374;2024-01-10T14:43:35;22.17;;;10.90;;
19998;SDS011;10160;50.926;4.374;2024-01-10T14:46:02;23.77;;;11.17;;
19998;SDS011;10160;50.926;4.374;2024-01-10T14:48:28;26.10;;;12.00;;
19998;SDS011;10160;50.926;4.374;2024-01-10T14:50:58;28.60;;;12.23;;
19998;SDS011;10160;50.926;4.374;2024-01-10T14:53:25;27.87;;;12.03;;